QTR22U OBBI-OKKK
Flight info
| Callsign | QTR22U |
|---|---|
| Flight time | 0h 43m |
| Altitude | 26000 |
| Route | BHR A453 KUMBO/N0376F240 A453 DEBTI |
| Aircraft | A332/H-SDE3GHIJ2J3J5M1RVWXY/LB2D1 |
Departure
| Time | 2026-04-27 18:06 |
|---|---|
| Airport | Bahrain International Airport (OBBI) |
Arrival
| Time | 2026-04-27 18:49 |
|---|---|
| Airport | Kuwait International Airport (OKKK) |
| Time | Latitude | Longitude | Altitude | Speed | Heading |
|---|---|---|---|---|---|
| 2026-04-27 16:58 | 26.27067 | 50.62633 | 18 ft | 0 kts | 216° |
| 2026-04-27 17:40 | 26.27078 | 50.62642 | 20 ft | 3 kts | 218° |
| 2026-04-27 17:40 | 26.27093 | 50.62655 | 20 ft | 3 kts | 218° |
| 2026-04-27 17:40 | 26.27103 | 50.62664 | 21 ft | 3 kts | 225° |
| 2026-04-27 17:40 | 26.27116 | 50.62679 | 21 ft | 3 kts | 225° |
| 2026-04-27 17:41 | 26.27129 | 50.62693 | 21 ft | 3 kts | 246° |
| 2026-04-27 17:41 | 26.27132 | 50.62713 | 22 ft | 3 kts | 296° |
| 2026-04-27 17:41 | 26.27131 | 50.62718 | 22 ft | 0 kts | 307° |
| 2026-04-27 17:58 | 26.27131 | 50.62717 | 18 ft | 0 kts | 307° |
| 2026-04-27 17:59 | 26.27138 | 50.62707 | 18 ft | 3 kts | 307° |
| 2026-04-27 17:59 | 26.27156 | 50.62679 | 18 ft | 6 kts | 306° |
| 2026-04-27 17:59 | 26.27184 | 50.62649 | 18 ft | 6 kts | 327° |
| 2026-04-27 17:59 | 26.27215 | 50.62645 | 18 ft | 4 kts | 13° |
| 2026-04-27 18:00 | 26.27248 | 50.62654 | 18 ft | 6 kts | 12° |
| 2026-04-27 18:00 | 26.27290 | 50.62648 | 20 ft | 5 kts | 336° |
| 2026-04-27 18:00 | 26.27318 | 50.62617 | 18 ft | 8 kts | 312° |
| 2026-04-27 18:00 | 26.27355 | 50.62556 | 18 ft | 12 kts | 300° |
| 2026-04-27 18:01 | 26.27405 | 50.62466 | 18 ft | 16 kts | 303° |
| 2026-04-27 18:01 | 26.27473 | 50.62348 | 18 ft | 20 kts | 303° |
| 2026-04-27 18:01 | 26.27559 | 50.62203 | 18 ft | 24 kts | 302° |
| 2026-04-27 18:01 | 26.27655 | 50.62036 | 19 ft | 27 kts | 303° |
| 2026-04-27 18:02 | 26.27746 | 50.61881 | 19 ft | 6 kts | 302° |
| 2026-04-27 18:02 | 26.27779 | 50.61823 | 19 ft | 11 kts | 302° |
| 2026-04-27 18:02 | 26.27830 | 50.61733 | 18 ft | 15 kts | 303° |
| 2026-04-27 18:02 | 26.27900 | 50.61657 | 19 ft | 9 kts | 341° |
| 2026-04-27 18:03 | 26.27909 | 50.61654 | 19 ft | 0 kts | 344° |
| 2026-04-27 18:03 | 26.27914 | 50.61653 | 19 ft | 3 kts | 345° |
| 2026-04-27 18:04 | 26.27952 | 50.61653 | 19 ft | 9 kts | 10° |
| 2026-04-27 18:04 | 26.28015 | 50.61695 | 23 ft | 11 kts | 56° |
| 2026-04-27 18:04 | 26.28004 | 50.61769 | 22 ft | 12 kts | 119° |
| 2026-04-27 18:04 | 26.27940 | 50.61885 | 21 ft | 30 kts | 122° |
| 2026-04-27 18:05 | 26.27729 | 50.62250 | 18 ft | 85 kts | 123° |
| 2026-04-27 18:05 | 26.27307 | 50.62987 | 18 ft | 138 kts | 122° |
| 2026-04-27 18:05 | 26.26713 | 50.64044 | 54 ft | 180 kts | 120° |
| 2026-04-27 18:05 | 26.26040 | 50.65263 | 544 ft | 188 kts | 121° |
| 2026-04-27 18:06 | 26.25376 | 50.66575 | 996 ft | 207 kts | 109° |
| 2026-04-27 18:06 | 26.25280 | 50.68295 | 1322 ft | 240 kts | 84° |
| 2026-04-27 18:06 | 26.25611 | 50.70179 | 2033 ft | 255 kts | 79° |
| 2026-04-27 18:06 | 26.26042 | 50.72148 | 2828 ft | 268 kts | 78° |
| 2026-04-27 18:07 | 26.26512 | 50.74221 | 3528 ft | 285 kts | 78° |
| 2026-04-27 18:07 | 26.26988 | 50.76388 | 4425 ft | 290 kts | 77° |
| 2026-04-27 18:07 | 26.27439 | 50.78564 | 5352 ft | 293 kts | 77° |
| 2026-04-27 18:07 | 26.27878 | 50.80799 | 6222 ft | 300 kts | 77° |
| 2026-04-27 18:08 | 26.28321 | 50.83137 | 6745 ft | 319 kts | 78° |
| 2026-04-27 18:08 | 26.28797 | 50.85669 | 6970 ft | 349 kts | 78° |
| 2026-04-27 18:08 | 26.29286 | 50.88450 | 6999 ft | 383 kts | 81° |
| 2026-04-27 18:08 | 26.29851 | 50.91435 | 7270 ft | 394 kts | 68° |
| 2026-04-27 18:09 | 26.31205 | 50.94012 | 8142 ft | 379 kts | 47° |
| 2026-04-27 18:09 | 26.33176 | 50.95848 | 9055 ft | 363 kts | 26° |
| 2026-04-27 18:09 | 26.35493 | 50.96757 | 9977 ft | 346 kts | 5° |
| 2026-04-27 18:09 | 26.37863 | 50.96699 | 10604 ft | 341 kts | 345° |
| 2026-04-27 18:10 | 26.40072 | 50.95710 | 10807 ft | 347 kts | 324° |
| 2026-04-27 18:10 | 26.41974 | 50.94011 | 11151 ft | 352 kts | 316° |
| 2026-04-27 18:10 | 26.43761 | 50.92172 | 11617 ft | 356 kts | 315° |
| 2026-04-27 18:10 | 26.45582 | 50.90276 | 12075 ft | 359 kts | 315° |
| 2026-04-27 18:11 | 26.47411 | 50.88368 | 12592 ft | 361 kts | 315° |
| 2026-04-27 18:11 | 26.49256 | 50.86448 | 13115 ft | 362 kts | 315° |
| 2026-04-27 18:11 | 26.51105 | 50.84540 | 13691 ft | 362 kts | 315° |
| 2026-04-27 18:11 | 26.52973 | 50.82644 | 14121 ft | 364 kts | 315° |
| 2026-04-27 18:12 | 26.54666 | 50.80547 | 14551 ft | 364 kts | 306° |
| 2026-04-27 18:12 | 26.56197 | 50.78292 | 15003 ft | 365 kts | 303° |
| 2026-04-27 18:12 | 26.57652 | 50.75961 | 15446 ft | 366 kts | 302° |
| 2026-04-27 18:12 | 26.59073 | 50.73591 | 15900 ft | 367 kts | 301° |
| 2026-04-27 18:13 | 26.60489 | 50.71207 | 16378 ft | 369 kts | 301° |
| 2026-04-27 18:13 | 26.61895 | 50.68851 | 16835 ft | 369 kts | 301° |
| 2026-04-27 18:13 | 26.63331 | 50.66465 | 17299 ft | 370 kts | 302° |
| 2026-04-27 18:13 | 26.64776 | 50.64083 | 17786 ft | 371 kts | 301° |
| 2026-04-27 18:14 | 26.66232 | 50.61698 | 18255 ft | 371 kts | 301° |
| 2026-04-27 18:14 | 26.67695 | 50.59306 | 18579 ft | 374 kts | 301° |
| 2026-04-27 18:14 | 26.69174 | 50.56891 | 18879 ft | 377 kts | 301° |
| 2026-04-27 18:14 | 26.70663 | 50.54458 | 19195 ft | 380 kts | 301° |
| 2026-04-27 18:15 | 26.72142 | 50.52040 | 19514 ft | 383 kts | 301° |
| 2026-04-27 18:15 | 26.73649 | 50.49575 | 19829 ft | 385 kts | 301° |
| 2026-04-27 18:15 | 26.75168 | 50.47088 | 20153 ft | 388 kts | 301° |
| 2026-04-27 18:15 | 26.76695 | 50.44586 | 20497 ft | 390 kts | 300° |
| 2026-04-27 18:16 | 26.78231 | 50.42068 | 20838 ft | 392 kts | 300° |
| 2026-04-27 18:16 | 26.79773 | 50.39538 | 21121 ft | 395 kts | 300° |
| 2026-04-27 18:16 | 26.81326 | 50.36988 | 21443 ft | 398 kts | 300° |
| 2026-04-27 18:16 | 26.82988 | 50.34492 | 21790 ft | 403 kts | 307° |
| 2026-04-27 18:17 | 26.84915 | 50.32180 | 22093 ft | 407 kts | 310° |
| 2026-04-27 18:17 | 26.86950 | 50.29950 | 22388 ft | 410 kts | 311° |
| 2026-04-27 18:17 | 26.88982 | 50.27757 | 22706 ft | 412 kts | 311° |
| 2026-04-27 18:17 | 26.91059 | 50.25521 | 23037 ft | 414 kts | 310° |
| 2026-04-27 18:18 | 26.93149 | 50.23337 | 23658 ft | 407 kts | 311° |
| 2026-04-27 18:18 | 26.95240 | 50.21208 | 24030 ft | 407 kts | 311° |
| 2026-04-27 18:18 | 26.97350 | 50.19066 | 24232 ft | 410 kts | 311° |
| 2026-04-27 18:18 | 26.99475 | 50.16905 | 24342 ft | 415 kts | 311° |
| 2026-04-27 18:19 | 27.01623 | 50.14718 | 24583 ft | 417 kts | 311° |
| 2026-04-27 18:19 | 27.03777 | 50.12525 | 24862 ft | 418 kts | 311° |
| 2026-04-27 18:19 | 27.05912 | 50.10354 | 25113 ft | 419 kts | 311° |
| 2026-04-27 18:19 | 27.08104 | 50.08126 | 25368 ft | 421 kts | 311° |
| 2026-04-27 18:20 | 27.10253 | 50.05959 | 25719 ft | 420 kts | 311° |
| 2026-04-27 18:20 | 27.12468 | 50.03752 | 25961 ft | 421 kts | 311° |
| 2026-04-27 18:20 | 27.14637 | 50.01594 | 26003 ft | 422 kts | 311° |
| 2026-04-27 18:20 | 27.16842 | 49.99398 | 26004 ft | 422 kts | 310° |
| 2026-04-27 18:21 | 27.18863 | 49.97043 | 26006 ft | 416 kts | 304° |
| 2026-04-27 18:21 | 27.20723 | 49.94566 | 26001 ft | 414 kts | 302° |
| 2026-04-27 18:21 | 27.22526 | 49.92048 | 26001 ft | 413 kts | 301° |
| 2026-04-27 18:21 | 27.24295 | 49.89503 | 26001 ft | 412 kts | 301° |
| 2026-04-27 18:22 | 27.26045 | 49.86950 | 25999 ft | 412 kts | 301° |
| 2026-04-27 18:22 | 27.27797 | 49.84384 | 26002 ft | 412 kts | 301° |
| 2026-04-27 18:22 | 27.29540 | 49.81831 | 26002 ft | 412 kts | 301° |
| 2026-04-27 18:22 | 27.31295 | 49.79265 | 26001 ft | 412 kts | 301° |
| 2026-04-27 18:23 | 27.33020 | 49.76749 | 25999 ft | 412 kts | 301° |
| 2026-04-27 18:23 | 27.34772 | 49.74199 | 25987 ft | 412 kts | 301° |
| 2026-04-27 18:23 | 27.36527 | 49.71643 | 25998 ft | 413 kts | 301° |
| 2026-04-27 18:23 | 27.38289 | 49.69077 | 25996 ft | 414 kts | 301° |
| 2026-04-27 18:24 | 27.40055 | 49.66505 | 26021 ft | 414 kts | 301° |
| 2026-04-27 18:24 | 27.41818 | 49.63936 | 26001 ft | 415 kts | 301° |
| 2026-04-27 18:24 | 27.43583 | 49.61362 | 25999 ft | 415 kts | 301° |
| 2026-04-27 18:24 | 27.45345 | 49.58793 | 25993 ft | 415 kts | 301° |
| 2026-04-27 18:25 | 27.47111 | 49.56215 | 25996 ft | 415 kts | 301° |
| 2026-04-27 18:25 | 27.48879 | 49.53690 | 25995 ft | 417 kts | 304° |
| 2026-04-27 18:25 | 27.50921 | 49.51339 | 25978 ft | 424 kts | 311° |
| 2026-04-27 18:25 | 27.53167 | 49.49157 | 25994 ft | 428 kts | 313° |
| 2026-04-27 18:26 | 27.55493 | 49.47046 | 25990 ft | 431 kts | 315° |
| 2026-04-27 18:26 | 27.57871 | 49.44972 | 25995 ft | 432 kts | 315° |
| 2026-04-27 18:26 | 27.60266 | 49.42922 | 25990 ft | 432 kts | 315° |
| 2026-04-27 18:26 | 27.62661 | 49.40879 | 25990 ft | 432 kts | 315° |
| 2026-04-27 18:27 | 27.65057 | 49.38830 | 25989 ft | 432 kts | 315° |
| 2026-04-27 18:27 | 27.67443 | 49.36778 | 25996 ft | 431 kts | 315° |
| 2026-04-27 18:27 | 27.69831 | 49.34715 | 25990 ft | 431 kts | 315° |
| 2026-04-27 18:27 | 27.72183 | 49.32675 | 25990 ft | 431 kts | 315° |
| 2026-04-27 18:28 | 27.74558 | 49.30611 | 26002 ft | 431 kts | 315° |
| 2026-04-27 18:28 | 27.76931 | 49.28546 | 25995 ft | 430 kts | 315° |
| 2026-04-27 18:28 | 27.79300 | 49.26484 | 26000 ft | 430 kts | 315° |
| 2026-04-27 18:28 | 27.81667 | 49.24423 | 25995 ft | 430 kts | 315° |
| 2026-04-27 18:29 | 27.84038 | 49.22355 | 25990 ft | 430 kts | 315° |
| 2026-04-27 18:29 | 27.86402 | 49.20294 | 25993 ft | 429 kts | 315° |
| 2026-04-27 18:29 | 27.88772 | 49.18230 | 25997 ft | 430 kts | 315° |
| 2026-04-27 18:29 | 27.91270 | 49.16329 | 26014 ft | 435 kts | 321° |
| 2026-04-27 18:30 | 27.93865 | 49.14556 | 25997 ft | 436 kts | 322° |
| 2026-04-27 18:30 | 27.96485 | 49.12833 | 25998 ft | 436 kts | 322° |
| 2026-04-27 18:30 | 27.99124 | 49.11137 | 25997 ft | 436 kts | 323° |
| 2026-04-27 18:30 | 28.01768 | 49.09456 | 26001 ft | 436 kts | 323° |
| 2026-04-27 18:31 | 28.04388 | 49.07795 | 25996 ft | 436 kts | 323° |
| 2026-04-27 18:31 | 28.07033 | 49.06118 | 25998 ft | 436 kts | 323° |
| 2026-04-27 18:31 | 28.09682 | 49.04432 | 26014 ft | 436 kts | 323° |
| 2026-04-27 18:31 | 28.12331 | 49.02742 | 26003 ft | 436 kts | 323° |
| 2026-04-27 18:32 | 28.14978 | 49.01050 | 25999 ft | 436 kts | 323° |
| 2026-04-27 18:32 | 28.17626 | 48.99355 | 25986 ft | 436 kts | 323° |
| 2026-04-27 18:32 | 28.20259 | 48.97669 | 25496 ft | 436 kts | 323° |
| 2026-04-27 18:32 | 28.22899 | 48.95976 | 25036 ft | 433 kts | 323° |
| 2026-04-27 18:33 | 28.25513 | 48.94303 | 24680 ft | 428 kts | 323° |
| 2026-04-27 18:33 | 28.28066 | 48.92667 | 24272 ft | 425 kts | 324° |
| 2026-04-27 18:33 | 28.30642 | 48.91010 | 23695 ft | 426 kts | 324° |
| 2026-04-27 18:33 | 28.33213 | 48.89338 | 23220 ft | 424 kts | 324° |
| 2026-04-27 18:34 | 28.35760 | 48.87672 | 22737 ft | 421 kts | 324° |
| 2026-04-27 18:34 | 28.38286 | 48.86018 | 22270 ft | 418 kts | 324° |
| 2026-04-27 18:34 | 28.40787 | 48.84371 | 22008 ft | 413 kts | 324° |
| 2026-04-27 18:34 | 28.43269 | 48.82714 | 21406 ft | 415 kts | 324° |
| 2026-04-27 18:35 | 28.45755 | 48.81042 | 20935 ft | 413 kts | 324° |
| 2026-04-27 18:35 | 28.48220 | 48.79382 | 20448 ft | 411 kts | 325° |
| 2026-04-27 18:35 | 28.50670 | 48.77734 | 19983 ft | 408 kts | 325° |
| 2026-04-27 18:35 | 28.53108 | 48.76097 | 19534 ft | 406 kts | 325° |
| 2026-04-27 18:36 | 28.54720 | 48.75015 | 19232 ft | 404 kts | 325° |
| 2026-04-27 18:36 | 28.57133 | 48.73397 | 18773 ft | 402 kts | 325° |
| 2026-04-27 18:36 | 28.60320 | 48.71257 | 18175 ft | 400 kts | 325° |
| 2026-04-27 18:36 | 28.62713 | 48.69647 | 17683 ft | 398 kts | 325° |
| 2026-04-27 18:37 | 28.65077 | 48.68032 | 17232 ft | 394 kts | 325° |
| 2026-04-27 18:37 | 28.67378 | 48.66362 | 16765 ft | 389 kts | 320° |
| 2026-04-27 18:37 | 28.69370 | 48.64349 | 16085 ft | 379 kts | 309° |
| 2026-04-27 18:37 | 28.70843 | 48.61912 | 15161 ft | 371 kts | 293° |
| 2026-04-27 18:38 | 28.71478 | 48.60117 | 14601 ft | 366 kts | 287° |
| 2026-04-27 18:38 | 28.72239 | 48.57366 | 13791 ft | 362 kts | 288° |
| 2026-04-27 18:38 | 28.73323 | 48.54795 | 12882 ft | 360 kts | 300° |
| 2026-04-27 18:38 | 28.74737 | 48.52441 | 11978 ft | 358 kts | 303° |
| 2026-04-27 18:39 | 28.76198 | 48.50160 | 11106 ft | 355 kts | 303° |
| 2026-04-27 18:39 | 28.77648 | 48.47928 | 10578 ft | 343 kts | 304° |
| 2026-04-27 18:39 | 28.79031 | 48.45795 | 10282 ft | 325 kts | 303° |
| 2026-04-27 18:39 | 28.80345 | 48.43777 | 10030 ft | 308 kts | 303° |
| 2026-04-27 18:40 | 28.81580 | 48.41891 | 9722 ft | 295 kts | 303° |
| 2026-04-27 18:40 | 28.82800 | 48.40041 | 9210 ft | 289 kts | 303° |
| 2026-04-27 18:40 | 28.83992 | 48.38249 | 8895 ft | 278 kts | 303° |
| 2026-04-27 18:40 | 28.85156 | 48.36520 | 8474 ft | 271 kts | 303° |
| 2026-04-27 18:41 | 28.86307 | 48.34827 | 7983 ft | 269 kts | 303° |
| 2026-04-27 18:41 | 28.87457 | 48.33149 | 7463 ft | 268 kts | 303° |
| 2026-04-27 18:41 | 28.88606 | 48.31489 | 6993 ft | 266 kts | 303° |
| 2026-04-27 18:41 | 28.89759 | 48.29838 | 6517 ft | 265 kts | 303° |
| 2026-04-27 18:42 | 28.90913 | 48.28203 | 6038 ft | 264 kts | 303° |
| 2026-04-27 18:42 | 28.91675 | 48.27129 | 5711 ft | 263 kts | 303° |
| 2026-04-27 18:42 | 28.93211 | 48.24967 | 5059 ft | 261 kts | 303° |
| 2026-04-27 18:42 | 28.94352 | 48.23361 | 4586 ft | 260 kts | 303° |
| 2026-04-27 18:43 | 28.95487 | 48.21763 | 4093 ft | 259 kts | 304° |
| 2026-04-27 18:43 | 28.96611 | 48.20165 | 3620 ft | 258 kts | 303° |
| 2026-04-27 18:43 | 28.97727 | 48.18567 | 3170 ft | 256 kts | 303° |
| 2026-04-27 18:43 | 28.98823 | 48.17001 | 2709 ft | 255 kts | 303° |
| 2026-04-27 18:44 | 28.99929 | 48.15430 | 2444 ft | 254 kts | 304° |
| 2026-04-27 18:44 | 29.01034 | 48.13850 | 2413 ft | 255 kts | 304° |
| 2026-04-27 18:44 | 29.02128 | 48.12274 | 2416 ft | 249 kts | 303° |
| 2026-04-27 18:44 | 29.03185 | 48.10768 | 2411 ft | 235 kts | 303° |
| 2026-04-27 18:45 | 29.04193 | 48.09351 | 2407 ft | 226 kts | 304° |
| 2026-04-27 18:45 | 29.05178 | 48.07953 | 2415 ft | 225 kts | 303° |
| 2026-04-27 18:45 | 29.06160 | 48.06564 | 2398 ft | 223 kts | 304° |
| 2026-04-27 18:45 | 29.07215 | 48.05280 | 2318 ft | 221 kts | 312° |
| 2026-04-27 18:46 | 29.08416 | 48.04199 | 2286 ft | 218 kts | 324° |
| 2026-04-27 18:46 | 29.09760 | 48.03427 | 2144 ft | 214 kts | 335° |
| 2026-04-27 18:46 | 29.11149 | 48.02902 | 1974 ft | 208 kts | 339° |
| 2026-04-27 18:46 | 29.12516 | 48.02395 | 1810 ft | 206 kts | 335° |
| 2026-04-27 18:47 | 29.13828 | 48.01771 | 1658 ft | 201 kts | 332° |
| 2026-04-27 18:47 | 29.15063 | 48.01138 | 1480 ft | 188 kts | 330° |
| 2026-04-27 18:47 | 29.16214 | 48.00493 | 1223 ft | 181 kts | 328° |
| 2026-04-27 18:47 | 29.17324 | 47.99836 | 962 ft | 178 kts | 330° |
| 2026-04-27 18:48 | 29.18412 | 47.99184 | 805 ft | 176 kts | 332° |
| 2026-04-27 18:48 | 29.19506 | 47.98577 | 591 ft | 174 kts | 334° |
| 2026-04-27 18:48 | 29.20584 | 47.97985 | 356 ft | 170 kts | 337° |
| 2026-04-27 18:48 | 29.21642 | 47.97425 | 191 ft | 158 kts | 336° |
| 2026-04-27 18:49 | 29.22309 | 47.97079 | 178 ft | 82 kts | 336° |
| 2026-04-27 18:49 | 29.22788 | 47.96832 | 170 ft | 71 kts | 335° |
| 2026-04-27 18:49 | 29.23172 | 47.96626 | 168 ft | 48 kts | 339° |
| 2026-04-27 18:49 | 29.23358 | 47.96606 | 165 ft | 13 kts | 17° |
| 2026-04-27 18:50 | 29.23372 | 47.96611 | 164 ft | 0 kts | 18° |
| 2026-04-27 18:54 | 29.23373 | 47.96612 | 164 ft | 1 kts | 18° |
| 2026-04-27 18:54 | 29.23390 | 47.96618 | 164 ft | 4 kts | 18° |
| 2026-04-27 18:55 | 29.23428 | 47.96633 | 163 ft | 7 kts | 20° |
| 2026-04-27 18:55 | 29.23472 | 47.96652 | 162 ft | 0 kts | 20° |
| 2026-04-27 18:55 | 29.23478 | 47.96655 | 162 ft | 0 kts | 20° |
| 2026-04-27 18:55 | 29.23482 | 47.96656 | 162 ft | 1 kts | 21° |
| 2026-04-27 18:56 | 29.23497 | 47.96662 | 161 ft | 3 kts | 17° |
| 2026-04-27 18:56 | 29.23525 | 47.96664 | 161 ft | 5 kts | 357° |
| 2026-04-27 18:56 | 29.23554 | 47.96659 | 161 ft | 0 kts | 349° |
| 2026-04-27 18:56 | 29.23559 | 47.96658 | 161 ft | 0 kts | 350° |
| 2026-04-27 18:57 | 29.23571 | 47.96655 | 160 ft | 1 kts | 346° |
| 2026-04-27 18:57 | 29.23575 | 47.96654 | 161 ft | 0 kts | 345° |
| 2026-04-27 18:58 | 29.23584 | 47.96649 | 158 ft | 6 kts | 338° |
| 2026-04-27 18:58 | 29.23630 | 47.96643 | 160 ft | 13 kts | 4° |
| 2026-04-27 18:58 | 29.23689 | 47.96760 | 159 ft | 16 kts | 71° |
| 2026-04-27 18:58 | 29.23718 | 47.96839 | 159 ft | 4 kts | 65° |
| 2026-04-27 18:59 | 29.23727 | 47.96860 | 159 ft | 0 kts | 65° |
| 2026-04-27 18:59 | 29.23737 | 47.96878 | 160 ft | 8 kts | 56° |
| 2026-04-27 18:59 | 29.23789 | 47.96893 | 158 ft | 7 kts | 332° |
| 2026-04-27 19:00 | 29.23812 | 47.96878 | 158 ft | 0 kts | 335° |
| 2026-04-27 19:00 | 29.23813 | 47.96877 | 158 ft | 0 kts | 335° |